»·PEaware :: N24266 L88-KSBP

N24266 :: L88-KSBP

FLIGHT INFORMATION

Flight Status: Arrived
Operator: Privately registered:
United States
More flights under this callsign
Pilot: Andrew M. (20248)
Aircraft: CESSNA 152 AEROBAT
(C152)
More flights by this aircraft type
Origin: L88 New Cuyama
United States
Destination: KSBP San Luis Co Regl
United States
More flights between these airports :: More routes between these airports
Route: DIRECT
File this flight plan on PilotEdge
Remarks: Sample flight plan
Altitude:
(Current/Filed)
6,500ft
Speed:
(Current/Filed)
100kts
Departed: 11-Sep-18 07:44 PM
Arrived: 11-Sep-18 08:22 PM
Distance/Time
Traveled:
50nm/0:37
Distance/Time
To Go:
Arrived

Flight Plot

Page will automatically refresh every two minutes.


Map Options




Map Legend


Flown Route
Filed Route
Departure Airport
Arrival Airport
Navaid (VOR, NDB)
Fix

Horizontal Profiles

Position Reports

Time Latitude Longitude Heading Altitude Ground
Speed
11-Sep-18 19:19 34.942816 -119.690216 204 2192ft 0kts
11-Sep-18 19:20 34.942814 -119.690218 206 2192ft 0kts
11-Sep-18 19:21 34.942814 -119.690218 206 2192ft 0kts
11-Sep-18 19:22 34.942814 -119.690218 206 2192ft 0kts
11-Sep-18 19:23 34.942814 -119.690218 206 2192ft 0kts
11-Sep-18 19:24 34.942814 -119.690218 206 2192ft 0kts
11-Sep-18 19:25 34.942814 -119.690218 206 2192ft 0kts
11-Sep-18 19:26 34.942814 -119.690218 206 2192ft 0kts
11-Sep-18 19:27 34.942814 -119.690218 206 2192ft 0kts
11-Sep-18 19:28 34.942814 -119.690218 206 2192ft 0kts
11-Sep-18 19:29 34.942814 -119.690218 206 2192ft 0kts
11-Sep-18 19:30 34.942814 -119.690218 206 2192ft 0kts
11-Sep-18 19:31 34.942814 -119.690218 206 2192ft 0kts
11-Sep-18 19:32 34.942814 -119.690218 206 2192ft 0kts
11-Sep-18 19:33 34.942814 -119.690218 206 2192ft 0kts
11-Sep-18 19:34 30.426588 -87.470808 360 83ft 0kts
11-Sep-18 19:35 30.426588 -87.470808 360 83ft 0kts
11-Sep-18 19:36 34.942970 -119.690680 204 2188ft 0kts
11-Sep-18 19:37 34.942783 -119.691125 217 2186ft 1kts
11-Sep-18 19:38 34.942721 -119.691727 274 2183ft 2kts
11-Sep-18 19:39 34.942673 -119.692382 184 2175ft 1kts
11-Sep-18 19:40 34.941877 -119.691954 33 2187ft 0kts
11-Sep-18 19:41 34.942085 -119.691888 12 2186ft 8kts
11-Sep-18 19:42 34.940272 -119.687336 124 2206ft 24kts
11-Sep-18 19:43 34.938145 -119.682731 127 2205ft 12kts
11-Sep-18 19:44 34.937207 -119.679924 101 2206ft 7kts
11-Sep-18 19:45 34.938099 -119.681047 294 2206ft 38kts
11-Sep-18 19:46 34.946898 -119.698405 298 2736ft 66kts
11-Sep-18 19:47 34.954364 -119.719082 283 3380ft 64kts
11-Sep-18 19:48 34.958296 -119.739496 283 3995ft 63kts
11-Sep-18 19:49 34.962987 -119.759781 287 4596ft 62kts
11-Sep-18 19:50 34.969246 -119.778947 287 5172ft 60kts
11-Sep-18 19:51 34.975339 -119.798042 287 5713ft 61kts
11-Sep-18 19:52 34.981410 -119.817119 287 6234ft 60kts
11-Sep-18 19:53 34.987276 -119.838788 284 6550ft 82kts
11-Sep-18 19:54 34.997843 -119.865846 298 6579ft 93kts
11-Sep-18 19:55 35.003456 -119.895963 270 6607ft 94kts
11-Sep-18 19:56 35.013355 -119.924955 309 6570ft 99kts
11-Sep-18 19:57 35.025625 -119.954075 297 6544ft 97kts
11-Sep-18 19:58 35.030618 -119.965004 297 6535ft 97kts
11-Sep-18 19:59 35.039275 -119.986484 289 6518ft 96kts
11-Sep-18 20:00 35.046382 -120.017812 281 6501ft 95kts
11-Sep-18 20:01 35.053595 -120.049040 290 6488ft 95kts
11-Sep-18 20:02 35.060525 -120.079470 268 6471ft 97kts
11-Sep-18 20:03 35.061179 -120.110840 288 6525ft 93kts
11-Sep-18 20:04 35.073271 -120.138534 305 6583ft 92kts
11-Sep-18 20:05 35.084454 -120.166712 296 6629ft 93kts
11-Sep-18 20:06 35.092945 -120.196546 291 6680ft 93kts
11-Sep-18 20:07 35.098735 -120.212924 301 6699ft 93kts
11-Sep-18 20:08 35.101820 -120.219467 300 6686ft 96kts
11-Sep-18 20:09 35.108363 -120.241329 289 6594ft 102kts
11-Sep-18 20:10 35.111421 -120.252312 293 6574ft 100kts
11-Sep-18 20:11 35.122003 -120.283955 295 6506ft 98kts
11-Sep-18 20:12 35.131125 -120.315235 288 6490ft 98kts
11-Sep-18 20:13 35.138183 -120.345117 286 6473ft 98kts
11-Sep-18 20:14 35.143531 -120.375624 286 5694ft 86kts
11-Sep-18 20:15 35.151594 -120.400535 298 5016ft 91kts
11-Sep-18 20:16 35.162970 -120.430850 291 4361ft 94kts
11-Sep-18 20:17 35.171877 -120.459326 285 3888ft 97kts
11-Sep-18 20:18 35.181140 -120.489708 296 3410ft 98kts
11-Sep-18 20:19 35.189931 -120.520838 267 2594ft 98kts
11-Sep-18 20:20 35.192505 -120.553296 283 1725ft 95kts
11-Sep-18 20:21 35.204452 -120.581702 301 1594ft 95kts
11-Sep-18 20:22 35.218198 -120.606374 304 1021ft 73kts
11-Sep-18 20:23 35.228660 -120.625712 303 437ft 65kts
11-Sep-18 20:24 35.236343 -120.639265 309 214ft 22kts
11-Sep-18 20:25 35.237610 -120.639913 349 214ft 0kts
11-Sep-18 20:26 35.237610 -120.639913 349 214ft 0kts
11-Sep-18 20:27 35.237610 -120.639913 349 214ft 0kts
11-Sep-18 20:28 35.238468 -120.640220 295 214ft 0kts
11-Sep-18 20:29 35.238468 -120.640220 295 214ft 0kts
11-Sep-18 20:30 35.238468 -120.640220 295 214ft 0kts
11-Sep-18 20:31 35.238468 -120.640220 295 214ft 0kts
11-Sep-18 20:32 35.238468 -120.640220 295 214ft 0kts
11-Sep-18 20:33 35.238468 -120.640220 295 214ft 0kts
11-Sep-18 20:34 35.238468 -120.640220 295 214ft 0kts

Navigation Log

Ident Type
1. L88 Airport
2. KSBP Airport